This is the latest recevied weather packets stored in our database for station/object ON3FV. If no packets are shown the sender has not sent any weather packets the latest 10 day(s).
| Time | Temp. | Humidity | Pressure | Rain* | Wind** | Luminosity | Snow |
|---|---|---|---|---|---|---|---|
| 1777589698 | 11.67° C | 47% | 1022.7 hPa | - | - | - | - |
| 1777589397 | 11.67° C | 47% | 1022.7 hPa | - | - | - | - |
| 1777588794 | 12.22° C | 47% | 1022.7 hPa | - | - | - | - |
| 1777588494 | 12.22° C | 47% | 1022.7 hPa | - | - | - | - |
| 1777587591 | 12.22° C | 48% | 1022.7 hPa | - | - | - | - |
| 1777587310 | 12.22° C | 48% | 1022.6 hPa | - | - | - | - |
| 1777584580 | 12.78° C | 47% | 1022.6 hPa | - | - | - | - |
| 1777584280 | 13.33° C | 46% | 1022.5 hPa | - | - | - | - |
| 1777582775 | 14.44° C | 44% | 1022.4 hPa | - | - | - | - |
| 1777582173 | 14.44° C | 43% | 1022.3 hPa | - | - | - | - |
| 1777581269 | 15.56° C | 43% | 1022.1 hPa | - | - | - | - |
| 1777580989 | 15.56° C | 43% | 1022.1 hPa | - | - | - | - |
| 1777580367 | 15.56° C | 41% | 1022 hPa | - | - | - | - |
| 1777576194 | 18.33° C | 37% | 1021 hPa | - | - | - | - |
| 1777574988 | 18.89° C | 37% | 1020.9 hPa | - | - | - | - |
| 1777571357 | 21.11° C | 35% | 1020.5 hPa | - | - | - | - |
| 1777570434 | 21.11° C | 35% | 1020.5 hPa | - | - | - | - |
| 1777567464 | 21.67° C | 34% | 1020.6 hPa | - | - | - | - |
| 1777567122 | 21.67° C | 34% | 1020.8 hPa | - | - | - | - |
| 1777566525 | 21.67° C | 35% | 1020.8 hPa | - | - | - | - |
| 1777565919 | 21.67° C | 34% | 1020.8 hPa | - | - | - | - |
| 1777563511 | 21.67° C | 34% | 1020.8 hPa | - | - | - | - |
| 1777562909 | 21.67° C | 36% | 1020.7 hPa | - | - | - | - |
| 1777556608 | 20.56° C | 39% | 1021.5 hPa | - | - | - | - |
| 1777554501 | 20.56° C | 39% | 1021.9 hPa | - | - | - | - |
* Rain since midnight (hover to see other rain measurements)
** Current wind speed in m/s (hover to see current wind gust speed)